Time;durP1;ratioP1;P1;durP2;ratioP2;P2;SDS_P1;SDS_P2;PMS_P1;PMS_P2;Temp;Humidity;BMP_temperature;BMP_pressure;BME280_temperature;BME280_humidity;BME280_pressure;Samples;Min_cycle;Max_cycle;Signal;HPM_P1;HPM_P2
2022/10/16 00:00:19;;;;;;;8.55;3.78;;;13.00;79.60;;;;;;4131212;28;20065;-85
2022/10/16 00:02:20;;;;;;;8.23;3.75;;;13.00;79.60;;;;;;4096868;28;20035;-84
2022/10/16 00:04:21;;;;;;;9.55;3.47;;;12.90;79.50;;;;;;4129269;28;21958;-85
2022/10/16 00:06:22;;;;;;;8.77;3.60;;;12.90;79.50;;;;;;4113530;28;20050;-84
2022/10/16 00:08:23;;;;;;;10.50;4.53;;;12.80;79.40;;;;;;4131884;28;20026;-85
2022/10/16 00:10:23;;;;;;;14.45;3.95;;;12.80;79.40;;;;;;4130251;28;20029;-85
2022/10/16 00:12:25;;;;;;;11.13;3.28;;;12.90;79.50;;;;;;4130218;28;20522;-86
2022/10/16 00:14:25;;;;;;;8.63;3.33;;;12.80;79.40;;;;;;4130163;28;20030;-85
2022/10/16 00:16:27;;;;;;;10.70;3.63;;;12.80;79.50;;;;;;4130381;28;20041;-85
2022/10/16 00:18:29;;;;;;;7.20;2.95;;;12.80;79.50;;;;;;4129693;28;20135;-85
2022/10/16 00:20:31;;;;;;;6.65;3.03;;;12.80;79.50;;;;;;4128851;28;20052;-85
2022/10/16 00:22:32;;;;;;;8.13;3.00;;;12.70;79.40;;;;;;4113653;28;20030;-85
2022/10/16 00:24:33;;;;;;;18.45;3.40;;;12.70;79.50;;;;;;4129516;28;20045;-85
2022/10/16 00:26:36;;;;;;;12.13;2.92;;;12.60;79.40;;;;;;4130531;28;20019;-85
2022/10/16 00:28:37;;;;;;;13.77;3.20;;;12.60;79.40;;;;;;4113885;28;20038;-85
2022/10/16 00:30:39;;;;;;;9.00;3.20;;;12.70;79.40;;;;;;4128180;28;20053;-85
2022/10/16 00:32:39;;;;;;;9.15;3.13;;;12.60;79.40;;;;;;4129223;28;20034;-85
2022/10/16 00:34:40;;;;;;;10.52;3.65;;;12.70;79.40;;;;;;4129627;28;20419;-86
2022/10/16 00:36:41;;;;;;;10.73;3.92;;;12.60;79.40;;;;;;4130084;28;20045;-85
2022/10/16 00:38:42;;;;;;;8.68;3.53;;;12.60;79.40;;;;;;4129466;28;20487;-85
2022/10/16 00:40:43;;;;;;;9.35;3.03;;;12.50;79.30;;;;;;4127698;28;21004;-85
2022/10/16 00:43:14;;;;;;;6.55;2.97;;;12.40;79.20;;;;;;4123384;28;20061;-85
2022/10/16 00:45:35;;;;;;;7.03;3.03;;;12.50;79.30;;;;;;4127272;28;20030;-84
2022/10/16 00:47:56;;;;;;;12.60;3.63;;;12.60;79.40;;;;;;4129302;28;20483;-85
2022/10/16 00:50:26;;;;;;;7.80;3.22;;;12.50;79.30;;;;;;4127572;28;20510;-84
2022/10/16 00:52:49;;;;;;;16.90;3.40;;;12.40;79.30;;;;;;4123492;28;20507;-85
2022/10/16 00:55:10;;;;;;;10.20;3.05;;;12.50;79.40;;;;;;4123340;28;20057;-85
2022/10/16 00:57:11;;;;;;;7.22;2.83;;;12.40;79.40;;;;;;4094702;28;20035;-85
2022/10/16 00:59:20;;;;;;;9.63;2.95;;;12.50;79.50;;;;;;4131130;28;20027;-85
2022/10/16 01:01:22;;;;;;;12.10;2.95;;;12.40;79.40;;;;;;4122471;28;20018;-85
2022/10/16 01:03:29;;;;;;;9.32;2.97;;;12.40;79.60;;;;;;4128433;28;20117;-85
2022/10/16 01:05:52;;;;;;;11.68;3.08;;;12.30;79.60;;;;;;4130461;28;20447;-84
2022/10/16 01:08:13;;;;;;;10.95;3.15;;;12.30;79.50;;;;;;4132086;28;20019;-85
2022/10/16 01:10:23;;;;;;;7.70;2.38;;;12.30;79.50;;;;;;4131622;28;20033;-85
2022/10/16 01:12:58;;;;;;;3.63;1.88;;;12.30;79.50;;;;;;4133525;28;20181;-85
2022/10/16 01:15:11;;;;;;;9.88;2.00;;;12.30;79.50;;;;;;4132622;28;20042;-84
2022/10/16 01:17:21;;;;;;;13.80;2.50;;;12.30;79.40;;;;;;4132638;28;20504;-84
2022/10/16 01:19:32;;;;;;;14.00;2.33;;;12.30;79.50;;;;;;4132079;28;20029;-85
2022/10/16 01:21:38;;;;;;;10.85;2.25;;;12.30;79.50;;;;;;4098205;28;20036;-86
2022/10/16 01:24:16;;;;;;;7.68;1.92;;;12.20;79.50;;;;;;4126549;28;20392;-86
2022/10/16 01:26:44;;;;;;;11.45;2.38;;;12.20;79.50;;;;;;4129313;28;20022;-86
2022/10/16 01:28:54;;;;;;;14.18;1.98;;;12.20;79.60;;;;;;4133047;28;20098;-85
2022/10/16 01:31:02;;;;;;;12.18;1.80;;;12.20;79.50;;;;;;4134682;28;20522;-85
2022/10/16 01:33:09;;;;;;;7.88;2.42;;;12.20;79.50;;;;;;4130825;28;20022;-85
2022/10/16 01:35:29;;;;;;;10.75;1.92;;;12.20;79.60;;;;;;4120158;28;20034;-86
2022/10/16 01:37:42;;;;;;;7.53;1.80;;;12.10;79.60;;;;;;4101367;28;20031;-86
2022/10/16 01:39:46;;;;;;;14.40;2.00;;;12.20;79.60;;;;;;4131085;28;20057;-86
2022/10/16 01:41:56;;;;;;;8.27;1.85;;;12.20;79.60;;;;;;4111275;28;20286;-86
2022/10/16 01:44:20;;;;;;;5.93;1.73;;;12.10;79.50;;;;;;4099557;28;20050;-85
2022/10/16 01:46:22;;;;;;;5.15;1.25;;;12.30;79.70;;;;;;4117848;28;20034;-87
2022/10/16 01:48:24;;;;;;;7.38;1.70;;;12.10;79.50;;;;;;4133421;28;20476;-86
2022/10/16 01:50:26;;;;;;;9.80;1.73;;;12.10;79.50;;;;;;4132631;28;20037;-86
2022/10/16 01:52:29;;;;;;;6.93;1.55;;;12.10;79.60;;;;;;4132811;28;20118;-87
2022/10/16 01:54:32;;;;;;;10.43;1.77;;;12.10;79.60;;;;;;4116774;28;20481;-86
2022/10/16 01:56:34;;;;;;;6.82;1.70;;;12.10;79.60;;;;;;4133665;28;20030;-86
2022/10/16 01:58:41;;;;;;;10.93;1.40;;;12.10;79.60;;;;;;4115628;28;20023;-86
2022/10/16 02:00:45;;;;;;;12.63;2.47;;;12.10;79.60;;;;;;4129460;28;20432;-86
2022/10/16 02:02:50;;;;;;;9.48;1.80;;;12.00;79.60;;;;;;4131795;28;20060;-86
2022/10/16 02:05:03;;;;;;;11.63;1.80;;;12.00;79.70;;;;;;4129772;28;20471;-85
2022/10/16 02:07:04;;;;;;;12.83;1.93;;;12.00;79.70;;;;;;4130717;28;20022;-85
2022/10/16 02:09:05;;;;;;;11.50;1.98;;;12.00;79.70;;;;;;4133684;28;20483;-86
2022/10/16 02:11:06;;;;;;;9.23;1.67;;;12.10;79.80;;;;;;4093970;28;20024;-86
2022/10/16 02:13:22;;;;;;;7.55;1.70;;;12.10;79.80;;;;;;4130996;28;20101;-85
2022/10/16 02:15:23;;;;;;;15.52;2.00;;;12.00;79.70;;;;;;4132046;28;20093;-86
2022/10/16 02:17:24;;;;;;;7.65;1.95;;;12.10;79.70;;;;;;4118572;28;20026;-84
2022/10/16 02:19:25;;;;;;;9.05;1.50;;;12.00;79.60;;;;;;4132073;28;20644;-85
2022/10/16 02:21:31;;;;;;;6.32;1.77;;;12.00;79.70;;;;;;4131338;28;20022;-86
2022/10/16 02:23:35;;;;;;;12.55;2.67;;;12.00;79.70;;;;;;4130552;28;20034;-85
2022/10/16 02:25:41;;;;;;;8.98;2.15;;;12.10;79.80;;;;;;4132456;28;20050;-86
2022/10/16 02:27:56;;;;;;;8.68;1.92;;;12.00;79.70;;;;;;4134290;28;20022;-85
2022/10/16 02:30:48;;;;;;;7.32;1.90;;;11.90;79.70;;;;;;4116841;28;20481;-85
2022/10/16 02:32:50;;;;;;;9.50;1.90;;;11.90;79.70;;;;;;4052763;29;20041;-85
2022/10/16 02:34:52;;;;;;;12.15;1.92;;;11.90;79.50;;;;;;4067056;29;20170;-85
2022/10/16 02:36:54;;;;;;;13.25;2.30;;;12.10;79.60;;;;;;4071501;29;20028;-85
2022/10/16 02:38:55;;;;;;;11.70;2.00;;;12.00;79.60;;;;;;4084846;29;20016;-84
2022/10/16 02:40:56;;;;;;;11.57;2.08;;;12.00;79.60;;;;;;4070112;29;20316;-85
2022/10/16 02:42:57;;;;;;;7.93;1.92;;;11.90;79.60;;;;;;4068056;29;20169;-86
2022/10/16 02:44:57;;;;;;;6.55;1.80;;;11.90;79.60;;;;;;4079692;29;20036;-86
2022/10/16 02:46:58;;;;;;;8.63;1.70;;;12.00;79.70;;;;;;4066540;29;20036;-85
2022/10/16 02:48:59;;;;;;;9.18;1.88;;;11.80;79.50;;;;;;4067158;29;20088;-86
2022/10/16 02:50:59;;;;;;;8.13;1.90;;;11.90;79.80;;;;;;4056990;29;20036;-84
2022/10/16 02:53:00;;;;;;;11.70;1.88;;;11.90;79.70;;;;;;4066797;29;20132;-85
2022/10/16 02:55:01;;;;;;;15.02;2.17;;;11.90;79.70;;;;;;4065309;29;20051;-85
2022/10/16 02:57:01;;;;;;;7.60;1.92;;;11.90;79.80;;;;;;4064832;29;20502;-85
2022/10/16 02:59:02;;;;;;;15.45;2.00;;;11.90;79.80;;;;;;4070033;29;20035;-85
2022/10/16 03:01:03;;;;;;;8.93;1.80;;;11.90;79.80;;;;;;4084235;28;20020;-85
2022/10/16 03:03:03;;;;;;;7.82;2.30;;;11.80;79.80;;;;;;4077785;29;20060;-85
2022/10/16 03:05:05;;;;;;;8.32;2.03;;;11.80;79.70;;;;;;4052093;29;20052;-86
2022/10/16 03:07:06;;;;;;;8.30;1.95;;;11.80;79.80;;;;;;4069849;29;20032;-85
2022/10/16 03:09:07;;;;;;;7.28;2.03;;;11.80;79.80;;;;;;4090704;28;20030;-86
2022/10/16 03:11:08;;;;;;;5.85;1.70;;;11.80;79.80;;;;;;4119495;28;20027;-85
2022/10/16 03:13:09;;;;;;;11.60;2.13;;;11.80;79.80;;;;;;4100930;28;20110;-85
2022/10/16 03:15:10;;;;;;;6.50;1.90;;;11.80;79.70;;;;;;4132933;28;20396;-85
2022/10/16 03:17:10;;;;;;;12.70;2.00;;;11.80;79.80;;;;;;4131927;28;20065;-86
2022/10/16 03:19:11;;;;;;;8.77;1.88;;;11.90;79.90;;;;;;4131310;28;20442;-85
2022/10/16 03:21:12;;;;;;;10.45;1.90;;;11.90;79.90;;;;;;4131066;28;20034;-85
2022/10/16 03:23:12;;;;;;;8.60;1.77;;;11.90;79.90;;;;;;4131686;28;20037;-84
2022/10/16 03:25:13;;;;;;;7.45;1.90;;;11.70;79.70;;;;;;4132175;28;20049;-85
2022/10/16 03:27:14;;;;;;;12.55;1.88;;;11.70;79.70;;;;;;4129433;28;20034;-85
2022/10/16 03:29:14;;;;;;;6.25;1.67;;;11.70;79.70;;;;;;4112423;28;20031;-85
2022/10/16 03:31:15;;;;;;;7.93;1.92;;;11.70;79.70;;;;;;4132184;28;20037;-84
2022/10/16 03:33:16;;;;;;;9.95;2.33;;;11.70;79.80;;;;;;4130886;28;20027;-86
2022/10/16 03:35:16;;;;;;;5.40;1.90;;;11.80;79.80;;;;;;4120816;28;20381;-85
2022/10/16 03:37:17;;;;;;;14.05;2.05;;;11.80;79.80;;;;;;4126556;28;20436;-85
2022/10/16 03:39:18;;;;;;;5.40;1.75;;;11.70;79.80;;;;;;4132428;28;20029;-85
2022/10/16 03:41:18;;;;;;;12.43;2.70;;;11.70;79.70;;;;;;4131500;28;20492;-85
2022/10/16 03:43:19;;;;;;;10.50;1.63;;;11.80;79.90;;;;;;4131936;28;20037;-84
2022/10/16 03:45:20;;;;;;;9.15;2.22;;;11.70;79.80;;;;;;4113831;28;20034;-84
2022/10/16 03:47:23;;;;;;;9.35;1.85;;;11.70;79.80;;;;;;4130372;28;20026;-85
2022/10/16 03:49:23;;;;;;;10.68;1.98;;;11.70;79.80;;;;;;4114260;28;20098;-85
2022/10/16 03:51:24;;;;;;;10.35;2.00;;;11.70;79.80;;;;;;4130653;28;20022;-86
2022/10/16 03:53:25;;;;;;;7.15;1.60;;;11.80;79.80;;;;;;4129976;28;20508;-85
2022/10/16 03:55:26;;;;;;;12.02;2.03;;;11.70;79.80;;;;;;4129248;28;20033;-85
2022/10/16 03:57:31;;;;;;;6.68;1.67;;;11.60;79.80;;;;;;4111023;28;20690;-85
2022/10/16 03:59:35;;;;;;;6.55;1.52;;;11.60;79.60;;;;;;4130831;28;20388;-86
2022/10/16 04:01:36;;;;;;;12.05;2.10;;;11.70;79.80;;;;;;4114991;28;20041;-85
2022/10/16 04:03:36;;;;;;;14.25;1.90;;;11.60;79.60;;;;;;4129773;28;20077;-85
2022/10/16 04:05:37;;;;;;;8.75;1.63;;;11.60;79.60;;;;;;4129920;28;20030;-85
2022/10/16 04:07:38;;;;;;;9.10;1.80;;;11.70;79.70;;;;;;4110627;28;20022;-86
2022/10/16 04:09:40;;;;;;;9.68;1.52;;;11.70;79.60;;;;;;4111821;28;20031;-85
2022/10/16 04:11:41;;;;;;;10.43;2.22;;;11.60;79.60;;;;;;4128979;28;20026;-86
2022/10/16 04:14:02;;;;;;;14.32;1.55;;;11.60;79.60;;;;;;4115278;28;20027;-86
2022/10/16 04:16:23;;;;;;;8.43;1.58;;;11.70;79.70;;;;;;4127433;28;20080;-85
2022/10/16 04:18:43;;;;;;;8.30;1.52;;;11.50;79.50;;;;;;4114156;28;20151;-85
2022/10/16 04:21:07;;;;;;;4.78;1.50;;;11.60;79.60;;;;;;4128925;28;20062;-85
2022/10/16 04:23:28;;;;;;;7.28;1.90;;;11.50;79.40;;;;;;4127888;28;20126;-85
2022/10/16 04:25:49;;;;;;;6.90;1.45;;;11.60;79.50;;;;;;4117820;28;20125;-85
2022/10/16 04:28:09;;;;;;;6.40;1.58;;;11.50;79.40;;;;;;4129632;28;20030;-85
2022/10/16 04:30:30;;;;;;;9.80;1.63;;;11.50;79.50;;;;;;4116751;28;20440;-85
2022/10/16 04:32:52;;;;;;;6.60;1.60;;;11.50;79.50;;;;;;4127264;28;20096;-86
2022/10/16 04:35:12;;;;;;;12.50;1.73;;;11.60;79.50;;;;;;4104838;28;20448;-85
2022/10/16 04:37:33;;;;;;;7.72;1.58;;;11.50;79.40;;;;;;4125501;28;20080;-85
2022/10/16 04:39:54;;;;;;;7.28;1.40;;;11.40;79.40;;;;;;4128723;28;20049;-85
2022/10/16 04:42:14;;;;;;;6.32;1.42;;;11.40;79.40;;;;;;4129882;28;20034;-84
2022/10/16 04:44:35;;;;;;;14.13;1.60;;;11.40;79.40;;;;;;4128858;28;20042;-85
2022/10/16 04:46:56;;;;;;;5.65;1.35;;;11.40;79.50;;;;;;4127675;28;20030;-85
2022/10/16 04:49:16;;;;;;;6.28;1.55;;;11.40;79.50;;;;;;4128775;28;20048;-85
2022/10/16 04:51:37;;;;;;;9.90;1.73;;;11.40;79.60;;;;;;4128855;28;20120;-85
2022/10/16 04:53:58;;;;;;;8.68;1.70;;;11.40;79.60;;;;;;4108677;28;20062;-85
2022/10/16 04:55:58;;;;;;;4.13;1.50;;;11.50;79.70;;;;;;4129798;28;20037;-85
2022/10/16 04:57:59;;;;;;;7.28;1.42;;;11.40;79.60;;;;;;4128930;28;20040;-85
2022/10/16 05:00:00;;;;;;;4.25;1.30;;;11.50;79.80;;;;;;4129603;28;20294;-84
2022/10/16 05:02:01;;;;;;;12.15;1.83;;;11.40;79.80;;;;;;4130502;28;20110;-84
2022/10/16 05:04:02;;;;;;;6.05;1.38;;;11.50;79.90;;;;;;4131956;28;20463;-85
2022/10/16 05:06:07;;;;;;;5.82;1.45;;;11.50;80.00;;;;;;4127946;28;20023;-84
2022/10/16 05:08:08;;;;;;;7.45;1.67;;;11.40;79.70;;;;;;4130152;28;20038;-85
2022/10/16 05:10:09;;;;;;;6.13;1.30;;;11.40;79.80;;;;;;4112931;28;20023;-85
2022/10/16 05:12:09;;;;;;;7.63;1.38;;;11.40;79.90;;;;;;4130732;28;20027;-85
2022/10/16 05:14:10;;;;;;;6.43;1.55;;;11.40;80.00;;;;;;4113791;28;20077;-85
2022/10/16 05:16:11;;;;;;;6.45;1.48;;;11.50;80.00;;;;;;4128395;28;20043;-85
2022/10/16 05:18:11;;;;;;;4.63;1.33;;;11.40;80.00;;;;;;4114575;28;20035;-84
2022/10/16 05:20:12;;;;;;;9.93;2.10;;;11.50;80.10;;;;;;4130606;28;20042;-84
2022/10/16 05:22:13;;;;;;;7.32;1.35;;;11.50;80.10;;;;;;4130109;28;20030;-85
2022/10/16 05:24:14;;;;;;;8.10;1.65;;;11.60;80.10;;;;;;4129779;28;20125;-85
2022/10/16 05:26:14;;;;;;;10.07;1.88;;;11.50;80.10;;;;;;4109488;28;20047;-85
2022/10/16 05:28:15;;;;;;;6.80;2.03;;;11.50;80.00;;;;;;4107491;28;20037;-85
2022/10/16 05:30:17;;;;;;;14.70;1.90;;;11.50;80.00;;;;;;4130309;28;20026;-85
2022/10/16 05:32:18;;;;;;;9.68;2.00;;;11.50;80.00;;;;;;4127380;28;20040;-85
2022/10/16 05:34:19;;;;;;;4.70;1.50;;;11.50;80.10;;;;;;4113194;28;20027;-85
2022/10/16 05:36:20;;;;;;;9.95;2.03;;;11.60;80.20;;;;;;4096115;29;20924;-85
2022/10/16 05:38:21;;;;;;;7.10;1.70;;;11.50;80.00;;;;;;4128130;28;20062;-85
2022/10/16 05:40:21;;;;;;;12.55;1.67;;;11.60;80.20;;;;;;4128968;28;20089;-85
2022/10/16 05:42:22;;;;;;;11.02;1.55;;;11.60;80.10;;;;;;4112084;28;20015;-85
2022/10/16 05:44:23;;;;;;;6.25;1.60;;;11.50;80.10;;;;;;4128996;28;20022;-84
2022/10/16 05:46:24;;;;;;;3.88;1.40;;;11.60;80.00;;;;;;4132275;28;20022;-85
2022/10/16 05:48:25;;;;;;;5.75;1.70;;;11.60;80.00;;;;;;4117010;28;20014;-84
2022/10/16 05:50:26;;;;;;;14.32;1.88;;;11.60;79.90;;;;;;4113027;28;20019;-85
2022/10/16 05:52:27;;;;;;;4.68;1.48;;;11.60;79.80;;;;;;4132876;28;20080;-87
2022/10/16 05:54:28;;;;;;;6.72;1.50;;;11.60;79.80;;;;;;4130198;28;20034;-86
2022/10/16 05:56:29;;;;;;;7.20;1.58;;;11.70;79.80;;;;;;4131157;28;20041;-86
2022/10/16 05:58:32;;;;;;;7.07;1.52;;;11.70;79.80;;;;;;4116271;28;20022;-85
2022/10/16 06:00:32;;;;;;;5.53;1.50;;;11.70;79.70;;;;;;4114184;28;20046;-86
2022/10/16 06:02:33;;;;;;;19.67;1.63;;;11.70;79.60;;;;;;4132434;28;20037;-85
2022/10/16 06:04:34;;;;;;;9.75;1.80;;;11.70;79.70;;;;;;4133040;28;20584;-84
2022/10/16 06:06:36;;;;;;;14.27;1.85;;;11.60;79.60;;;;;;4101493;28;20106;-85
2022/10/16 06:08:36;;;;;;;7.35;1.63;;;11.60;79.50;;;;;;4133926;28;20022;-86
2022/10/16 06:10:37;;;;;;;6.90;1.52;;;11.60;79.50;;;;;;4132928;28;20030;-85
2022/10/16 06:12:38;;;;;;;3.63;1.10;;;11.60;79.50;;;;;;4132862;28;20131;-85
2022/10/16 06:14:38;;;;;;;3.67;1.50;;;11.70;79.50;;;;;;4135533;28;20037;-85
2022/10/16 06:16:39;;;;;;;6.93;1.85;;;11.70;79.50;;;;;;4115248;28;20041;-85
2022/10/16 06:18:40;;;;;;;6.55;1.90;;;11.70;79.50;;;;;;4133682;28;20030;-85
2022/10/16 06:20:41;;;;;;;4.57;1.52;;;11.60;79.50;;;;;;4120560;28;20663;-85
2022/10/16 06:22:41;;;;;;;6.30;1.45;;;11.70;79.70;;;;;;4115263;28;20022;-86
2022/10/16 06:24:42;;;;;;;2.83;1.08;;;11.60;79.60;;;;;;4133287;28;20172;-86
2022/10/16 06:26:42;;;;;;;6.82;1.35;;;11.60;79.70;;;;;;4132852;28;20498;-86
2022/10/16 06:28:43;;;;;;;12.90;2.00;;;11.70;79.80;;;;;;4136847;28;20109;-83
2022/10/16 06:30:44;;;;;;;4.85;1.80;;;11.80;79.80;;;;;;4123983;28;20023;-86
2022/10/16 06:32:45;;;;;;;8.35;1.35;;;11.70;79.80;;;;;;4115562;28;20022;-86
2022/10/16 06:34:46;;;;;;;5.95;1.90;;;11.70;79.90;;;;;;4133245;28;20026;-86
2022/10/16 06:36:46;;;;;;;7.45;1.33;;;11.70;79.90;;;;;;4134232;28;20399;-84
2022/10/16 06:38:47;;;;;;;8.75;1.10;;;11.80;80.50;;;;;;4131578;28;20031;-86
2022/10/16 06:40:48;;;;;;;9.65;1.13;;;11.70;79.90;;;;;;4111747;28;20661;-86
2022/10/16 06:42:49;;;;;;;4.63;1.15;;;11.90;80.00;;;;;;4115631;28;20085;-86
2022/10/16 06:44:49;;;;;;;4.05;1.13;;;11.80;79.80;;;;;;4132303;28;20033;-85
2022/10/16 06:46:50;;;;;;;7.43;1.60;;;11.90;79.80;;;;;;4122475;28;20102;-86
2022/10/16 06:48:51;;;;;;;6.20;1.30;;;11.90;79.80;;;;;;4132696;28;20026;-85
2022/10/16 06:51:04;;;;;;;15.52;1.73;;;11.80;79.70;;;;;;4117945;28;20078;-86
2022/10/16 06:53:04;;;;;;;6.53;1.25;;;11.90;79.70;;;;;;4147477;28;20018;-86
2022/10/16 06:55:05;;;;;;;8.05;1.38;;;11.90;79.70;;;;;;4134974;28;20068;-86
2022/10/16 06:57:06;;;;;;;3.38;1.25;;;11.90;79.70;;;;;;4135176;28;20030;-85
2022/10/16 06:59:07;;;;;;;7.38;1.30;;;12.00;79.80;;;;;;4099402;29;21682;-86
2022/10/16 07:01:09;;;;;;;12.43;1.58;;;11.90;79.70;;;;;;4116839;28;20034;-85
2022/10/16 07:03:13;;;;;;;6.25;1.33;;;11.90;80.40;;;;;;4132856;28;20464;-86
2022/10/16 07:05:14;;;;;;;4.82;1.17;;;12.00;79.70;;;;;;4119596;28;20026;-86
2022/10/16 07:07:14;;;;;;;2.85;0.93;;;12.10;79.80;;;;;;4135177;28;20033;-86
2022/10/16 07:09:15;;;;;;;5.28;1.60;;;12.00;79.70;;;;;;4119890;28;20027;-85
2022/10/16 07:11:19;;;;;;;4.47;1.17;;;12.00;79.60;;;;;;4132872;28;20033;-85
2022/10/16 07:13:19;;;;;;;6.47;1.33;;;12.10;79.70;;;;;;4133531;28;20014;-86
2022/10/16 07:15:20;;;;;;;8.40;1.38;;;12.20;79.70;;;;;;4116142;28;20053;-86
2022/10/16 07:17:20;;;;;;;8.82;1.15;;;12.10;79.60;;;;;;4114381;28;20039;-86
2022/10/16 07:19:21;;;;;;;4.32;1.20;;;12.10;79.50;;;;;;4119415;28;20034;-85
2022/10/16 07:21:22;;;;;;;10.30;1.42;;;12.20;79.60;;;;;;4130100;28;20030;-86
2022/10/16 07:23:23;;;;;;;5.75;1.20;;;12.20;79.40;;;;;;4123669;28;20414;-85
2022/10/16 07:25:23;;;;;;;13.65;1.63;;;12.30;79.50;;;;;;4111788;28;20114;-84
2022/10/16 07:27:24;;;;;;;2.90;0.75;;;12.30;79.40;;;;;;4130324;28;20031;-86
2022/10/16 07:29:25;;;;;;;8.82;1.42;;;12.40;79.40;;;;;;4131652;28;20042;-86
2022/10/16 07:31:26;;;;;;;3.83;0.90;;;12.50;79.40;;;;;;4131039;28;20033;-85
2022/10/16 07:33:28;;;;;;;5.95;1.27;;;12.40;79.20;;;;;;4128511;28;20416;-84
2022/10/16 07:35:28;;;;;;;7.28;1.05;;;12.40;79.20;;;;;;4131933;28;20097;-86
2022/10/16 07:37:29;;;;;;;5.50;1.33;;;12.40;79.00;;;;;;4113662;28;20027;-85
2022/10/16 07:39:29;;;;;;;4.50;1.17;;;12.40;78.90;;;;;;4130551;28;20031;-86
2022/10/16 07:41:32;;;;;;;9.13;1.38;;;12.50;78.80;;;;;;4128370;28;20038;-86
2022/10/16 07:43:33;;;;;;;11.20;1.02;;;12.60;78.90;;;;;;4129817;28;20038;-86
2022/10/16 07:45:34;;;;;;;9.05;1.23;;;12.50;78.80;;;;;;4131628;28;20086;-83
2022/10/16 07:47:34;;;;;;;7.35;0.90;;;12.60;78.90;;;;;;4102034;28;20030;-84
2022/10/16 07:49:35;;;;;;;5.03;1.38;;;12.70;78.80;;;;;;4132115;28;20022;-85
2022/10/16 07:51:38;;;;;;;8.85;1.65;;;12.70;78.60;;;;;;4132827;28;20516;-84
2022/10/16 07:53:38;;;;;;;3.95;1.50;;;12.70;78.50;;;;;;4116455;28;20023;-84
2022/10/16 07:55:39;;;;;;;6.10;1.15;;;12.70;78.50;;;;;;4115576;28;20029;-85
2022/10/16 07:57:40;;;;;;;5.07;1.23;;;12.90;78.40;;;;;;4130725;28;20038;-84
2022/10/16 07:59:40;;;;;;;3.05;1.05;;;12.90;78.20;;;;;;4116842;28;20027;-83
2022/10/16 08:01:44;;;;;;;8.55;1.20;;;12.90;78.10;;;;;;4131193;28;20030;-83
2022/10/16 08:03:45;;;;;;;;;;;12.90;77.70;;;;;;4130266;28;20435;-85
2022/10/16 08:05:46;;;;;;;7.32;1.30;;;12.90;77.50;;;;;;4131565;28;20016;-85
2022/10/16 08:07:50;;;;;;;6.40;1.13;;;12.90;77.50;;;;;;4131642;28;20014;-84
2022/10/16 08:09:51;;;;;;;4.70;1.08;;;13.00;77.50;;;;;;4113118;28;20378;-85
2022/10/16 08:11:52;;;;;;;6.07;1.23;;;13.10;77.50;;;;;;4128919;28;20029;-85
2022/10/16 08:13:53;;;;;;;15.18;1.48;;;13.00;77.50;;;;;;4093742;29;20019;-85
2022/10/16 08:15:54;;;;;;;15.05;1.85;;;13.20;77.50;;;;;;4129697;28;20030;-83
2022/10/16 08:17:59;;;;;;;7.95;1.45;;;13.00;77.00;;;;;;4119934;28;20432;-84
2022/10/16 08:20:01;;;;;;;9.20;1.48;;;13.10;77.10;;;;;;4129017;28;20025;-84
2022/10/16 08:22:02;;;;;;;6.28;1.13;;;13.20;77.20;;;;;;4126218;28;20160;-84
2022/10/16 08:24:03;;;;;;;8.82;1.15;;;13.30;77.10;;;;;;4127618;28;20431;-86
2022/10/16 08:26:26;;;;;;;5.75;1.30;;;13.20;76.90;;;;;;4130481;28;20023;-84
2022/10/16 08:28:50;;;;;;;9.35;1.27;;;13.30;76.70;;;;;;4128526;28;20033;-84
2022/10/16 08:30:51;;;;;;;6.35;1.40;;;13.40;76.60;;;;;;4101838;28;20031;-84
2022/10/16 08:32:52;;;;;;;4.47;0.90;;;13.50;76.60;;;;;;4126551;28;20038;-84
2022/10/16 08:35:14;;;;;;;8.25;1.15;;;13.50;76.40;;;;;;4128405;28;20250;-85
2022/10/16 08:37:22;;;;;;;8.15;1.27;;;13.40;76.10;;;;;;4129878;28;20033;-84
2022/10/16 08:39:28;;;;;;;5.55;1.35;;;13.60;76.20;;;;;;4114106;28;20216;-83
2022/10/16 08:42:04;;;;;;;4.68;1.30;;;13.60;76.00;;;;;;4129463;28;20042;-84
2022/10/16 08:44:30;;;;;;;5.25;1.17;;;13.60;75.40;;;;;;4126765;28;20036;-85
2022/10/16 08:47:11;;;;;;;7.20;1.50;;;13.60;75.80;;;;;;4130037;28;20043;-84
2022/10/16 08:49:32;;;;;;;9.23;0.90;;;13.70;75.50;;;;;;4113544;28;20031;-85
2022/10/16 08:51:37;;;;;;;6.97;1.08;;;13.70;75.20;;;;;;4096768;28;20496;-84
2022/10/16 08:54:02;;;;;;;5.53;0.90;;;13.90;75.20;;;;;;4112889;28;20031;-85
2022/10/16 08:56:22;;;;;;;;;;;13.80;74.70;;;;;;4121892;28;20042;-82
2022/10/16 08:58:44;;;;;;;4.40;1.10;;;13.90;74.80;;;;;;4112143;28;20012;-82
2022/10/16 09:01:00;;;;;;;4.53;1.15;;;14.00;74.50;;;;;;4131277;28;20027;-84
2022/10/16 09:03:32;;;;;;;10.57;1.33;;;14.00;74.10;;;;;;4127324;28;20084;-86
2022/10/16 09:06:08;;;;;;;8.65;1.50;;;14.10;73.40;;;;;;4129955;28;20109;-85
2022/10/16 09:08:40;;;;;;;5.93;0.98;;;14.10;73.20;;;;;;4128993;28;20066;-83
2022/10/16 09:11:24;;;;;;;13.02;1.38;;;14.20;73.20;;;;;;4130905;28;20033;-81
2022/10/16 09:14:02;;;;;;;8.23;1.55;;;14.20;72.30;;;;;;4132702;28;20544;-84
2022/10/16 09:16:46;;;;;;;7.75;1.10;;;14.30;72.10;;;;;;4129824;28;20026;-83
2022/10/16 09:19:36;;;;;;;5.78;1.10;;;14.30;71.80;;;;;;4128715;28;20034;-85
2022/10/16 09:22:01;;;;;;;6.70;1.23;;;14.30;72.00;;;;;;4134451;28;20031;-83
2022/10/16 09:24:25;;;;;;;6.75;1.55;;;14.40;71.90;;;;;;4132292;28;20041;-85
2022/10/16 09:26:46;;;;;;;;;;;14.40;72.10;;;;;;4122728;28;20037;-85
2022/10/16 09:29:12;;;;;;;11.95;1.40;;;14.50;71.30;;;;;;4119565;28;19917;-85
2022/10/16 09:31:36;;;;;;;5.80;0.90;;;14.50;71.60;;;;;;4133050;28;20031;-86
2022/10/16 09:34:06;;;;;;;10.40;1.52;;;14.70;71.90;;;;;;4132548;28;20031;-85
2022/10/16 09:36:28;;;;;;;10.68;1.58;;;14.60;71.40;;;;;;4133075;28;20073;-87
2022/10/16 09:38:50;;;;;;;11.23;1.50;;;14.70;71.20;;;;;;4116648;28;20090;-85
2022/10/16 09:41:19;;;;;;;8.55;1.52;;;14.70;71.10;;;;;;4130320;28;20097;-86
2022/10/16 09:43:56;;;;;;;13.05;1.67;;;14.90;70.50;;;;;;4130902;28;20108;-86
2022/10/16 09:46:22;;;;;;;12.50;1.83;;;14.80;70.10;;;;;;4132461;28;20042;-86
2022/10/16 09:48:47;;;;;;;14.57;1.63;;;14.80;70.40;;;;;;4132272;28;20110;-85
2022/10/16 09:51:25;;;;;;;13.45;2.25;;;14.80;70.10;;;;;;4131498;28;20037;-85
2022/10/16 09:53:47;;;;;;;13.30;1.80;;;14.90;69.80;;;;;;4130950;28;20104;-84
2022/10/16 09:56:13;;;;;;;12.63;1.80;;;14.90;70.00;;;;;;4132076;28;20472;-87
2022/10/16 09:58:34;;;;;;;8.50;1.80;;;15.00;70.10;;;;;;4129708;28;20041;-84
2022/10/16 10:00:55;;;;;;;7.55;1.92;;;15.00;70.20;;;;;;4116803;28;20112;-86
2022/10/16 10:03:45;;;;;;;11.48;1.63;;;15.10;70.00;;;;;;4127918;28;20026;-84
2022/10/16 10:06:22;;;;;;;12.55;1.85;;;15.10;69.30;;;;;;4130616;28;20057;-85
2022/10/16 10:09:22;;;;;;;17.90;2.03;;;15.10;69.30;;;;;;4130820;28;20085;-86
2022/10/16 10:11:51;;;;;;;14.05;2.30;;;15.20;69.10;;;;;;4084241;29;20473;-85
2022/10/16 10:14:19;;;;;;;15.32;2.08;;;15.20;68.70;;;;;;4069200;29;20036;-86
2022/10/16 10:16:40;;;;;;;13.75;2.03;;;15.20;69.00;;;;;;4084240;29;20035;-83
2022/10/16 10:19:01;;;;;;;13.10;2.30;;;15.30;69.50;;;;;;4082380;29;20134;-87
2022/10/16 10:21:02;;;;;;;18.35;2.50;;;15.30;69.00;;;;;;4081958;29;20079;-84
2022/10/16 10:23:25;;;;;;;17.77;2.13;;;15.30;68.70;;;;;;4083843;29;20040;-85
2022/10/16 10:25:46;;;;;;;14.23;2.15;;;15.30;67.90;;;;;;4067652;29;20036;-88
2022/10/16 10:27:53;;;;;;;15.70;2.40;;;15.30;68.00;;;;;;4052805;29;20028;-84
2022/10/16 10:30:18;;;;;;;9.43;1.85;;;15.40;68.90;;;;;;4083266;29;20042;-86
2022/10/16 10:32:25;;;;;;;;;;;15.40;68.40;;;;;;4085852;29;20075;-86
2022/10/16 10:34:35;;;;;;;12.88;1.92;;;15.40;67.50;;;;;;4100773;28;19918;-84
2022/10/16 10:36:38;;;;;;;15.38;2.40;;;15.40;68.10;;;;;;4093607;28;20043;-86
2022/10/16 10:38:58;;;;;;;;;;;15.50;67.80;;;;;;4069281;29;20102;-84
2022/10/16 10:41:12;;;;;;;23.02;2.50;;;15.50;66.70;;;;;;4090937;29;20075;-85
2022/10/16 10:43:25;;;;;;;15.57;1.95;;;15.50;67.50;;;;;;4086035;29;20036;-86
2022/10/16 10:45:27;;;;;;;17.38;1.85;;;15.50;68.10;;;;;;4086502;29;20042;-84
2022/10/16 10:47:40;;;;;;;17.27;2.65;;;15.60;68.40;;;;;;4100545;28;20114;-86
2022/10/16 10:49:56;;;;;;;12.88;2.38;;;15.70;68.00;;;;;;4132775;28;20022;-83
2022/10/16 10:52:22;;;;;;;22.83;2.65;;;15.60;68.10;;;;;;4134031;28;20011;-85
2022/10/16 10:54:54;;;;;;;20.95;2.70;;;15.60;66.90;;;;;;4113897;28;20031;-86
2022/10/16 10:57:10;;;;;;;17.42;2.50;;;15.70;66.90;;;;;;4120408;28;20135;-84
2022/10/16 10:59:29;;;;;;;20.05;2.47;;;15.70;66.40;;;;;;4116357;28;20663;-85
2022/10/16 11:01:44;;;;;;;10.73;2.00;;;15.70;65.50;;;;;;4132825;28;20085;-86
2022/10/16 11:04:18;;;;;;;13.32;2.20;;;15.70;65.90;;;;;;4131687;28;20022;-86
2022/10/16 11:06:39;;;;;;;14.98;2.38;;;15.70;66.40;;;;;;4133794;28;20034;-86
2022/10/16 11:09:12;;;;;;;6.53;1.40;;;15.80;66.60;;;;;;4096831;28;20118;-86